createdAt,value
2022-10-10T00:01:32.056Z,1.50
2022-10-10T00:04:02.544Z,1.13
2022-10-10T00:06:33.307Z,1.67
2022-10-10T00:09:01.835Z,1.33
2022-10-10T00:11:31.019Z,2.13
2022-10-10T00:14:00.054Z,1.20
2022-10-10T00:16:28.201Z,0.90
2022-10-10T00:18:56.548Z,1.60
2022-10-10T00:21:26.237Z,1.43
2022-10-10T00:23:54.465Z,1.30
2022-10-10T00:26:22.822Z,1.33
2022-10-10T00:28:51.153Z,1.37
2022-10-10T00:31:19.689Z,1.50
2022-10-10T00:33:47.953Z,1.13
2022-10-10T00:36:16.841Z,1.70
2022-10-10T00:38:46.207Z,1.70
2022-10-10T00:41:14.530Z,1.60
2022-10-10T00:43:42.866Z,1.70
2022-10-10T00:46:11.380Z,1.83
2022-10-10T00:48:43.293Z,1.53
2022-10-10T00:51:15.009Z,2.13
2022-10-10T00:53:47.695Z,1.20
2022-10-10T00:56:19.233Z,1.73
2022-10-10T00:58:51.893Z,1.50
2022-10-10T01:01:20.371Z,1.50
2022-10-10T01:03:48.624Z,1.27
2022-10-10T01:06:17.235Z,2.00
2022-10-10T01:08:47.116Z,1.53
2022-10-10T01:11:35.791Z,1.70
2022-10-10T01:14:16.044Z,1.70
2022-10-10T01:16:52.722Z,1.70
2022-10-10T01:19:50.657Z,1.30
2022-10-10T01:22:27.891Z,1.70
2022-10-10T01:25:06.863Z,1.50
2022-10-10T01:27:42.024Z,1.63
2022-10-10T01:30:15.328Z,2.10
2022-10-10T01:32:47.641Z,1.50
2022-10-10T01:35:41.261Z,1.53
2022-10-10T01:38:22.383Z,2.10
2022-10-10T01:40:56.261Z,2.10
2022-10-10T01:43:26.257Z,1.43
2022-10-10T01:45:56.962Z,1.63
2022-10-10T01:48:31.563Z,1.80
2022-10-10T01:51:16.627Z,1.30
2022-10-10T01:53:54.387Z,1.40
2022-10-10T01:56:32.386Z,1.67
2022-10-10T01:59:12.120Z,1.63
2022-10-10T02:01:49.244Z,1.33
2022-10-10T02:04:29.096Z,1.60
2022-10-10T02:07:03.282Z,1.57
2022-10-10T02:09:37.334Z,1.33
2022-10-10T02:12:06.381Z,1.50
2022-10-10T02:14:41.628Z,1.40
2022-10-10T02:17:13.697Z,1.47
2022-10-10T02:19:47.475Z,1.37
2022-10-10T02:22:15.846Z,1.80
2022-10-10T02:24:44.418Z,1.40
2022-10-10T02:27:18.383Z,2.00
2022-10-10T02:29:48.773Z,1.63
2022-10-10T02:32:22.707Z,1.70
2022-10-10T02:34:55.480Z,1.43
2022-10-10T02:37:25.135Z,1.67
2022-10-10T02:40:00.053Z,1.87
2022-10-10T02:42:30.241Z,1.70
2022-10-10T02:44:59.073Z,1.90
2022-10-10T02:47:28.998Z,2.13
2022-10-10T02:49:57.325Z,1.50
2022-10-10T02:52:25.556Z,1.77
2022-10-10T02:54:53.999Z,1.83
2022-10-10T02:57:22.328Z,1.57
2022-10-10T02:59:50.561Z,2.10
2022-10-10T03:02:18.717Z,1.57
2022-10-10T03:04:48.707Z,2.13
2022-10-10T03:07:17.058Z,2.00
2022-10-10T03:09:45.087Z,2.17
2022-10-10T03:12:13.366Z,1.53
2022-10-10T03:14:41.963Z,1.73
2022-10-10T03:17:10.064Z,2.37
2022-10-10T03:19:38.788Z,1.80
2022-10-10T03:22:08.738Z,2.20
2022-10-10T03:24:36.781Z,1.73
2022-10-10T03:27:05.054Z,1.90
2022-10-10T03:29:33.407Z,2.17
2022-10-10T03:32:01.405Z,2.07
2022-10-10T03:34:29.732Z,1.57
2022-10-10T03:36:57.852Z,2.27
2022-10-10T03:39:27.353Z,2.07
2022-10-10T03:41:55.634Z,1.50
2022-10-10T03:44:24.126Z,1.60
2022-10-10T03:46:52.249Z,1.90
2022-10-10T03:49:20.545Z,1.80
2022-10-10T03:51:48.905Z,1.80
2022-10-10T03:54:17.016Z,2.40
2022-10-10T03:56:46.867Z,1.50
2022-10-10T03:59:15.169Z,1.40
2022-10-10T04:01:43.368Z,1.87
2022-10-10T04:04:11.832Z,2.33
2022-10-10T04:06:39.947Z,1.93
2022-10-10T04:09:09.177Z,2.13
2022-10-10T04:11:38.806Z,1.67
2022-10-10T04:14:08.586Z,1.67
2022-10-10T04:16:36.614Z,1.70
2022-10-10T04:19:04.830Z,2.10
2022-10-10T04:21:33.104Z,2.37
2022-10-10T04:24:01.210Z,1.90
2022-10-10T04:26:29.469Z,1.83
2022-10-10T04:28:57.766Z,1.67
2022-10-10T04:31:27.500Z,1.50
2022-10-10T04:33:55.746Z,2.30
2022-10-10T04:36:24.046Z,1.90
2022-10-10T04:38:52.223Z,1.97
2022-10-10T04:41:20.630Z,2.37
2022-10-10T04:43:48.775Z,2.17
2022-10-10T04:46:17.200Z,1.90
2022-10-10T04:48:46.925Z,2.33
2022-10-10T04:51:15.172Z,1.90
2022-10-10T04:53:48.118Z,2.10
2022-10-10T04:56:18.784Z,2.10
2022-10-10T04:58:46.830Z,2.23
2022-10-10T05:01:15.143Z,2.17
2022-10-10T05:03:46.244Z,2.10
2022-10-10T05:06:15.780Z,1.70
2022-10-10T05:08:44.467Z,1.90
2022-10-10T05:11:12.744Z,2.60
2022-10-10T05:13:41.222Z,1.70
2022-10-10T05:16:09.532Z,2.43
2022-10-10T05:18:39.538Z,1.87
2022-10-10T05:21:07.861Z,2.07
2022-10-10T05:23:38.305Z,2.30
2022-10-10T05:26:06.692Z,3.40
2022-10-10T05:28:36.624Z,2.30
2022-10-10T05:31:05.573Z,1.90
2022-10-10T05:33:34.950Z,1.93
2022-10-10T05:36:05.185Z,1.70
2022-10-10T05:38:34.035Z,1.80
2022-10-10T05:41:03.574Z,1.67
2022-10-10T05:43:31.726Z,1.80
2022-10-10T05:46:00.198Z,1.90
2022-10-10T05:48:28.374Z,1.90
2022-10-10T05:50:58.111Z,1.73
2022-10-10T05:53:27.849Z,2.43
2022-10-10T05:55:56.041Z,2.80
2022-10-10T05:58:27.337Z,2.10
2022-10-10T06:00:55.546Z,2.80
2022-10-10T06:03:24.162Z,2.63
2022-10-10T06:05:53.707Z,2.20
2022-10-10T06:08:22.014Z,1.93
2022-10-10T06:10:50.624Z,2.07
2022-10-10T06:13:24.127Z,2.37
2022-10-10T06:15:55.298Z,2.00
2022-10-10T06:18:23.304Z,1.77
2022-10-10T06:20:51.458Z,1.80
2022-10-10T06:23:20.491Z,1.80
2022-10-10T06:25:48.591Z,2.17
2022-10-10T06:28:16.807Z,2.27
2022-10-10T06:30:48.674Z,2.40
2022-10-10T06:33:19.501Z,2.30
2022-10-10T06:35:49.774Z,2.60
2022-10-10T06:38:18.354Z,1.83
2022-10-10T06:40:47.758Z,2.10
2022-10-10T06:43:17.495Z,1.97
2022-10-10T06:45:48.442Z,2.40
2022-10-10T06:48:18.366Z,2.00
2022-10-10T06:50:57.560Z,2.23
2022-10-10T06:53:26.345Z,2.13
2022-10-10T06:55:55.010Z,2.00
2022-10-10T06:58:24.031Z,2.30
2022-10-10T07:00:53.729Z,2.47
2022-10-10T07:03:24.715Z,2.13
2022-10-10T07:05:53.978Z,2.53
2022-10-10T07:08:23.326Z,1.83
2022-10-10T07:10:51.847Z,2.00
2022-10-10T07:13:20.629Z,2.30
2022-10-10T07:15:49.318Z,1.70
2022-10-10T07:18:19.111Z,2.20
2022-10-10T07:20:49.822Z,3.53
2022-10-10T07:23:18.462Z,2.23
2022-10-10T07:25:46.823Z,1.97
2022-10-10T07:28:15.468Z,2.10
2022-10-10T07:30:45.196Z,2.33
2022-10-10T07:33:14.195Z,2.37
2022-10-10T07:35:42.707Z,1.97
2022-10-10T07:38:13.806Z,2.00
2022-10-10T07:40:42.302Z,1.73
2022-10-10T07:43:12.822Z,2.30
2022-10-10T07:45:44.062Z,2.20
2022-10-10T07:48:12.671Z,2.83
2022-10-10T07:50:42.604Z,1.97
2022-10-10T07:53:13.732Z,2.60
2022-10-10T07:55:44.213Z,2.10
2022-10-10T07:58:13.614Z,2.30
2022-10-10T08:00:46.154Z,2.20
2022-10-10T08:03:14.513Z,1.90
2022-10-10T08:05:43.461Z,1.80
2022-10-10T08:08:13.045Z,1.87
2022-10-10T08:10:46.301Z,1.90
2022-10-10T08:13:14.892Z,1.93
2022-10-10T08:15:43.220Z,2.63
2022-10-10T08:18:11.750Z,2.20
2022-10-10T08:20:40.238Z,2.07
2022-10-10T08:23:10.515Z,1.93
2022-10-10T08:25:38.849Z,1.73
2022-10-10T08:28:08.859Z,1.93
2022-10-10T08:30:41.994Z,1.70
2022-10-10T08:33:10.418Z,1.60
2022-10-10T08:35:39.685Z,2.03
2022-10-10T08:38:09.197Z,1.93
2022-10-10T08:40:45.096Z,2.40
2022-10-10T08:43:23.654Z,2.33
2022-10-10T08:45:54.420Z,2.30
2022-10-10T08:48:27.160Z,1.90
2022-10-10T08:51:01.373Z,1.70
2022-10-10T08:53:33.679Z,2.17
2022-10-10T08:56:03.426Z,2.10
2022-10-10T08:58:38.618Z,2.20
2022-10-10T09:01:12.825Z,1.83
2022-10-10T09:03:47.658Z,1.83
2022-10-10T09:06:30.336Z,1.60
2022-10-10T09:09:06.364Z,1.40
2022-10-10T09:11:49.396Z,2.07
2022-10-10T09:14:34.815Z,2.03
2022-10-10T09:17:10.569Z,2.13
2022-10-10T09:19:50.942Z,2.07
2022-10-10T09:22:24.842Z,1.80
2022-10-10T09:24:57.113Z,1.60
2022-10-10T09:27:30.428Z,2.07
2022-10-10T09:30:04.776Z,1.83
2022-10-10T09:32:38.951Z,1.60
2022-10-10T09:35:17.961Z,2.07
2022-10-10T09:37:50.099Z,2.00
2022-10-10T09:40:27.008Z,1.97
2022-10-10T09:42:56.857Z,1.50
2022-10-10T09:45:31.645Z,2.00
2022-10-10T09:48:00.406Z,2.50
2022-10-10T09:50:28.555Z,1.80
2022-10-10T09:52:58.721Z,2.50
2022-10-10T09:55:30.331Z,1.80
2022-10-10T09:58:04.039Z,2.00
2022-10-10T10:00:37.995Z,1.70
2022-10-10T10:03:12.460Z,2.10
2022-10-10T10:05:43.090Z,1.80
2022-10-10T10:08:25.372Z,2.23
2022-10-10T10:10:58.265Z,2.00
2022-10-10T10:13:31.401Z,1.50
2022-10-10T10:16:05.424Z,1.70
2022-10-10T10:18:40.169Z,1.97
2022-10-10T10:21:19.122Z,2.07
2022-10-10T10:23:53.291Z,2.10
2022-10-10T10:26:24.626Z,2.20
2022-10-10T10:28:53.919Z,1.80
2022-10-10T10:31:33.214Z,1.90
2022-10-10T10:34:17.801Z,2.03
2022-10-10T10:36:55.915Z,2.27
2022-10-10T10:39:43.621Z,1.87
2022-10-10T10:42:29.325Z,2.07
2022-10-10T10:45:06.469Z,1.73
2022-10-10T10:47:45.646Z,2.00
2022-10-10T10:50:39.722Z,1.90
2022-10-10T10:53:20.282Z,2.10
2022-10-10T10:55:53.236Z,2.63
2022-10-10T10:59:22.519Z,4.57
2022-10-10T11:01:56.247Z,6.87
2022-10-10T11:05:20.845Z,3.67
2022-10-10T11:07:54.685Z,2.00
2022-10-10T11:10:32.074Z,2.63
2022-10-10T11:13:09.969Z,2.00
2022-10-10T11:18:36.691Z,1.70
2022-10-10T11:21:10.296Z,1.90
2022-10-10T11:23:43.877Z,2.17
2022-10-10T11:26:18.229Z,2.30
2022-10-10T11:28:51.590Z,2.17
2022-10-10T11:31:25.599Z,2.30
2022-10-10T11:33:58.882Z,1.27
2022-10-10T11:36:31.702Z,2.00
2022-10-10T11:39:05.808Z,1.90
2022-10-10T11:41:39.326Z,1.40
2022-10-10T11:44:14.140Z,2.20
2022-10-10T11:46:48.157Z,1.80
2022-10-10T11:49:21.545Z,1.97
2022-10-10T11:52:32.471Z,1.80
2022-10-10T11:55:07.498Z,2.23
2022-10-10T11:57:40.436Z,2.00
2022-10-10T12:00:14.559Z,1.93
2022-10-10T12:02:45.124Z,1.80
2022-10-10T12:05:24.005Z,1.63
2022-10-10T12:08:08.745Z,1.90
2022-10-10T12:10:42.471Z,1.80
2022-10-10T12:13:28.364Z,1.93
2022-10-10T12:16:00.270Z,2.50
2022-10-10T12:18:32.322Z,2.30
2022-10-10T12:21:10.089Z,2.03
2022-10-10T12:23:41.287Z,1.97
2022-10-10T12:26:15.291Z,2.27
2022-10-10T12:29:03.316Z,2.17
2022-10-10T12:31:36.457Z,1.87
2022-10-10T12:34:40.712Z,1.90
2022-10-10T12:37:22.609Z,2.00
2022-10-10T12:40:20.395Z,1.90
2022-10-10T12:43:26.601Z,2.00
2022-10-10T12:46:22.285Z,2.10
2022-10-10T12:49:03.954Z,1.87
2022-10-10T12:51:35.797Z,2.30
2022-10-10T12:54:08.836Z,2.07
2022-10-10T12:56:45.727Z,2.03
2022-10-10T12:59:21.747Z,2.23
2022-10-10T13:01:54.390Z,2.10
2022-10-10T13:04:24.285Z,2.23
2022-10-10T13:06:57.686Z,2.23
2022-10-10T13:09:32.368Z,2.40
2022-10-10T13:12:06.624Z,2.37
2022-10-10T13:14:44.725Z,2.10
2022-10-10T13:17:24.055Z,1.63
2022-10-10T13:19:53.015Z,2.13
2022-10-10T13:22:21.796Z,2.63
2022-10-10T13:24:51.967Z,1.90
2022-10-10T13:27:23.892Z,2.10
2022-10-10T13:29:53.491Z,2.20
2022-10-10T13:32:24.280Z,2.60
2022-10-10T13:34:55.366Z,2.37
2022-10-10T13:37:24.538Z,2.60
2022-10-10T13:39:54.839Z,2.83
2022-10-10T13:42:31.432Z,2.20
2022-10-10T13:45:00.597Z,2.30
2022-10-10T13:47:54.222Z,2.20
2022-10-10T13:50:28.294Z,2.47
2022-10-10T13:53:39.057Z,2.40
2022-10-10T13:56:13.713Z,2.00
2022-10-10T13:58:47.470Z,2.20
2022-10-10T14:01:37.650Z,2.40
2022-10-10T14:04:19.630Z,2.17
2022-10-10T14:06:57.798Z,2.60
2022-10-10T14:09:30.361Z,2.87
2022-10-10T14:12:00.862Z,2.37
2022-10-10T14:14:36.922Z,2.57
2022-10-10T14:17:06.876Z,2.27
2022-10-10T14:19:35.493Z,2.23
2022-10-10T14:22:03.833Z,2.20
2022-10-10T14:24:32.334Z,2.30
2022-10-10T14:27:07.097Z,3.03
2022-10-10T14:29:36.916Z,2.57
2022-10-10T14:32:05.335Z,2.50
2022-10-10T14:34:33.725Z,3.63
2022-10-10T14:37:02.131Z,3.00
2022-10-10T14:39:30.370Z,2.63
2022-10-10T14:42:00.189Z,2.47
2022-10-10T14:44:28.323Z,2.27
2022-10-10T14:46:57.934Z,2.37
2022-10-10T14:49:26.444Z,2.73
2022-10-10T14:51:54.545Z,2.23
2022-10-10T14:54:22.996Z,2.60
2022-10-10T14:57:06.807Z,2.67
2022-10-10T14:59:46.079Z,2.67
2022-10-10T15:02:20.066Z,2.40
2022-10-10T15:04:48.672Z,2.40
2022-10-10T15:07:17.766Z,2.50
2022-10-10T15:12:36.160Z,2.63
2022-10-10T15:15:05.241Z,2.80
2022-10-10T15:17:35.586Z,2.80
2022-10-10T15:20:04.074Z,2.27
2022-10-10T15:22:32.467Z,2.40
2022-10-10T15:25:01.321Z,2.73
2022-10-10T15:27:29.472Z,2.50
2022-10-10T15:29:58.133Z,2.30
2022-10-10T15:32:26.718Z,2.60
2022-10-10T15:34:56.229Z,2.57
2022-10-10T15:37:27.147Z,2.83
2022-10-10T15:39:55.641Z,2.83
2022-10-10T15:42:23.916Z,2.87
2022-10-10T15:44:53.004Z,2.80
2022-10-10T15:47:22.147Z,2.80
2022-10-10T15:49:50.634Z,2.90
2022-10-10T15:52:23.281Z,2.70
2022-10-10T15:54:51.750Z,2.47
2022-10-10T15:57:20.740Z,2.70
2022-10-10T15:59:49.188Z,3.00
2022-10-10T16:02:18.250Z,2.80
2022-10-10T16:04:47.134Z,2.80
2022-10-10T16:07:34.602Z,2.63
2022-10-10T16:10:07.807Z,2.47
2022-10-10T16:12:36.212Z,2.80
2022-10-10T16:15:07.072Z,2.67
2022-10-10T16:17:35.808Z,2.80
2022-10-10T16:20:04.305Z,3.30
2022-10-10T16:22:32.718Z,3.10
2022-10-10T16:25:21.202Z,2.97
2022-10-10T16:27:51.497Z,2.47
2022-10-10T16:30:20.725Z,2.83
2022-10-10T16:32:49.089Z,3.10
2022-10-10T16:35:17.536Z,3.33
2022-10-10T16:37:45.812Z,3.20
2022-10-10T16:40:14.130Z,3.20
2022-10-10T16:42:42.373Z,2.67
2022-10-10T16:45:12.542Z,3.20
2022-10-10T16:47:44.101Z,3.00
2022-10-10T16:50:12.884Z,3.03
2022-10-10T16:52:43.869Z,3.17
2022-10-10T16:55:12.680Z,3.50
2022-10-10T16:57:41.828Z,3.57
2022-10-10T17:00:12.636Z,3.00
2022-10-10T17:02:42.479Z,3.40
2022-10-10T17:05:15.183Z,3.77
2022-10-10T17:07:43.622Z,2.97
2022-10-10T17:10:11.700Z,3.10
2022-10-10T17:12:40.217Z,3.00
2022-10-10T17:15:09.759Z,3.03
2022-10-10T17:17:42.354Z,3.20
2022-10-10T17:20:11.899Z,3.87
2022-10-10T17:22:42.448Z,3.50
2022-10-10T17:25:11.989Z,3.47
2022-10-10T17:27:42.351Z,3.47
2022-10-10T17:30:12.841Z,3.90
2022-10-10T17:32:44.192Z,3.33
2022-10-10T17:35:12.532Z,3.97
2022-10-10T17:37:43.328Z,3.33
2022-10-10T17:40:12.277Z,3.80
2022-10-10T17:42:40.535Z,4.03
2022-10-10T17:45:10.011Z,3.50
2022-10-10T17:47:41.010Z,4.17
2022-10-10T17:50:13.334Z,4.03
2022-10-10T17:52:42.064Z,4.93
2022-10-10T17:55:11.657Z,4.43
2022-10-10T17:57:40.025Z,4.23
2022-10-10T18:00:12.300Z,4.07
2022-10-10T18:02:40.791Z,4.27
2022-10-10T18:05:13.497Z,3.53
2022-10-10T18:07:43.550Z,3.23
2022-10-10T18:10:12.176Z,3.00
2022-10-10T18:12:41.929Z,2.50
2022-10-10T18:15:11.020Z,2.23
2022-10-10T18:17:42.729Z,2.40
2022-10-10T18:20:13.538Z,2.00
2022-10-10T18:22:41.856Z,1.77
2022-10-10T18:25:13.117Z,1.83
2022-10-10T18:27:41.444Z,1.73
2022-10-10T18:30:10.589Z,1.83
2022-10-10T18:32:38.920Z,2.50
2022-10-10T18:35:07.411Z,1.67
2022-10-10T18:37:40.135Z,1.90
2022-10-10T18:40:10.911Z,2.07
2022-10-10T18:42:42.080Z,1.50
2022-10-10T18:45:14.136Z,2.20
2022-10-10T18:47:45.404Z,1.67
2022-10-10T18:50:24.004Z,2.77
2022-10-10T18:52:57.612Z,1.50
2022-10-10T18:55:31.850Z,1.40
2022-10-10T18:58:03.441Z,2.57
2022-10-10T19:00:41.854Z,2.97
2022-10-10T19:03:12.921Z,1.80
2022-10-10T19:05:44.074Z,1.43
2022-10-10T19:08:16.030Z,2.63
2022-10-10T19:10:53.099Z,1.70
2022-10-10T19:13:28.688Z,1.60
2022-10-10T19:16:00.887Z,1.43
2022-10-10T19:18:32.266Z,1.77
2022-10-10T19:21:03.142Z,1.30
2022-10-10T19:23:36.098Z,1.70
2022-10-10T19:26:09.513Z,1.80
2022-10-10T19:28:41.873Z,1.33
2022-10-10T19:31:15.149Z,1.83
2022-10-10T19:33:44.113Z,2.40
2022-10-10T19:36:13.219Z,2.30
2022-10-10T19:38:43.559Z,2.13
2022-10-10T19:41:14.453Z,1.60
2022-10-10T19:43:43.696Z,2.03
2022-10-10T19:46:14.692Z,2.20
2022-10-10T19:48:43.122Z,2.30
2022-10-10T19:51:16.022Z,1.73
2022-10-10T19:53:46.164Z,1.87
2022-10-10T19:56:16.735Z,2.00
2022-10-10T19:58:45.051Z,2.33
2022-10-10T20:01:15.904Z,2.23
2022-10-10T20:03:45.279Z,1.90
2022-10-10T20:06:13.615Z,1.93
2022-10-10T20:08:42.225Z,1.70
2022-10-10T20:11:11.972Z,1.87
2022-10-10T20:13:43.806Z,1.80
2022-10-10T20:16:12.771Z,1.73
2022-10-10T20:18:43.386Z,1.70
2022-10-10T20:21:18.137Z,1.70
2022-10-10T20:23:48.163Z,1.40
2022-10-10T20:26:19.868Z,2.10
2022-10-10T20:28:48.451Z,1.80
2022-10-10T20:31:20.116Z,1.93
2022-10-10T20:33:49.042Z,1.93
2022-10-10T20:36:18.725Z,2.17
2022-10-10T20:38:53.751Z,2.17
2022-10-10T20:41:25.320Z,2.13
2022-10-10T20:43:58.444Z,1.63
2022-10-10T20:46:27.815Z,2.20
2022-10-10T20:48:56.194Z,1.63
2022-10-10T20:51:25.275Z,1.70
2022-10-10T20:53:57.183Z,1.63
2022-10-10T20:56:28.115Z,1.93
2022-10-10T20:58:56.986Z,2.00
2022-10-10T21:01:27.268Z,2.30
2022-10-10T21:03:56.074Z,2.43
2022-10-10T21:06:27.835Z,2.40
2022-10-10T21:08:56.977Z,2.37
2022-10-10T21:11:27.121Z,1.77
2022-10-10T21:13:57.445Z,1.93
2022-10-10T21:16:27.628Z,1.90
2022-10-10T21:18:58.526Z,2.00
2022-10-10T21:21:32.888Z,2.37
2022-10-10T21:24:01.472Z,3.33
2022-10-10T21:26:31.726Z,1.83
2022-10-10T21:29:00.907Z,2.30
2022-10-10T21:31:31.685Z,2.63
2022-10-10T21:34:02.158Z,1.90
2022-10-10T21:36:30.770Z,2.13
2022-10-10T21:38:59.743Z,2.93
2022-10-10T21:41:29.125Z,2.23
2022-10-10T21:44:00.702Z,2.70
2022-10-10T21:46:35.856Z,2.27
2022-10-10T21:49:06.606Z,3.00
2022-10-10T21:51:36.716Z,3.13
2022-10-10T21:54:05.028Z,3.37
2022-10-10T21:56:34.044Z,3.13
2022-10-10T21:59:03.858Z,3.00
2022-10-10T22:01:33.340Z,2.30
2022-10-10T22:04:03.179Z,2.30
2022-10-10T22:06:32.743Z,2.97
2022-10-10T22:09:02.125Z,2.87
2022-10-10T22:11:32.551Z,2.40
2022-10-10T22:14:02.601Z,3.03
2022-10-10T22:16:32.866Z,4.03
2022-10-10T22:19:02.399Z,2.87
2022-10-10T22:21:32.463Z,2.77
2022-10-10T22:24:02.683Z,3.30
2022-10-10T22:26:31.915Z,3.17
2022-10-10T22:29:00.171Z,2.40
2022-10-10T22:31:30.209Z,2.37
2022-10-10T22:34:00.120Z,2.80
2022-10-10T22:36:28.542Z,2.23
2022-10-10T22:38:57.036Z,2.50
2022-10-10T22:41:25.360Z,3.40
2022-10-10T22:43:54.319Z,3.90
2022-10-10T22:46:22.527Z,3.30
2022-10-10T22:48:50.925Z,3.23
2022-10-10T22:51:20.337Z,2.47
2022-10-10T22:53:49.454Z,3.13
2022-10-10T22:56:20.656Z,4.10
2022-10-10T22:58:49.925Z,3.73
2022-10-10T23:01:21.726Z,3.37
2022-10-10T23:03:50.403Z,2.93
2022-10-10T23:06:18.549Z,3.83
2022-10-10T23:08:48.276Z,2.20
2022-10-10T23:11:16.564Z,3.30
2022-10-10T23:13:45.402Z,2.60
2022-10-10T23:16:13.622Z,2.40
2022-10-10T23:18:41.847Z,3.97
2022-10-10T23:21:10.111Z,3.13
2022-10-10T23:23:40.518Z,2.80
2022-10-10T23:26:11.017Z,3.77
2022-10-10T23:28:40.362Z,3.57
2022-10-10T23:31:11.103Z,2.67
2022-10-10T23:33:42.406Z,2.83
2022-10-10T23:36:13.520Z,2.70
2022-10-10T23:38:42.981Z,2.70
2022-10-10T23:41:14.220Z,3.07
2022-10-10T23:43:42.979Z,2.70
2022-10-10T23:46:14.500Z,3.20
2022-10-10T23:48:42.845Z,3.13
2022-10-10T23:51:13.625Z,2.47
2022-10-10T23:53:41.886Z,2.27
2022-10-10T23:56:10.516Z,2.80
2022-10-10T23:58:39.982Z,4.07
